Time,TemperatureF,DewpointF,PressureIn,WindDirection,WindDirectionDegrees,WindSpeedMPH,WindSpeedGustMPH,Humidity,HourlyPrecipIn,Conditions,Clouds,dailyrainin,SoftwareType,DateUTC
2013-05-21 00:00:00,72.4,64.0,29.80,SW,222,5.0,-999.0,75,0.00,,,0.00,Wunderground v.1.15,2013-05-21 04:00:00,
2013-05-21 00:05:00,72.4,64.0,29.80,SW,222,4.0,-999.0,75,0.00,,,0.00,Wunderground v.1.15,2013-05-21 04:05:00,
2013-05-21 00:15:00,72.5,63.7,29.79,SW,222,5.0,-999.0,74,0.00,,,0.00,Wunderground v.1.15,2013-05-21 04:15:00,
2013-05-21 00:20:00,72.6,63.8,29.79,SW,222,4.0,-999.0,74,0.00,,,0.00,Wunderground v.1.15,2013-05-21 04:20:00,
2013-05-21 00:25:00,72.7,63.9,29.79,SW,222,4.0,-999.0,74,0.00,,,0.00,Wunderground v.1.15,2013-05-21 04:25:00,
2013-05-21 00:30:00,72.1,63.4,29.79,SW,222,4.0,-999.0,74,0.00,,,0.00,Wunderground v.1.15,2013-05-21 04:30:00,
2013-05-21 00:35:00,71.9,63.5,29.79,SW,222,4.0,-999.0,75,0.00,,,0.00,Wunderground v.1.15,2013-05-21 04:35:00,
2013-05-21 00:40:00,72.2,63.8,29.79,SW,222,4.0,-999.0,75,0.00,,,0.00,Wunderground v.1.15,2013-05-21 04:40:00,
2013-05-21 00:45:00,72.1,63.4,29.80,SW,222,2.0,-999.0,74,0.00,,,0.00,Wunderground v.1.15,2013-05-21 04:45:00,
2013-05-21 00:50:00,72.1,63.7,29.82,WNW,295,4.0,-999.0,75,0.00,,,0.00,Wunderground v.1.15,2013-05-21 04:50:00,
2013-05-21 00:55:00,71.8,62.7,29.80,NNW,344,9.0,-999.0,73,0.00,,,0.00,Wunderground v.1.15,2013-05-21 04:55:00,
2013-05-21 01:00:00,71.3,62.6,29.80,NNW,336,9.0,-999.0,74,0.00,,,0.00,Wunderground v.1.15,2013-05-21 05:00:00,
2013-05-21 01:05:00,70.8,62.5,29.80,NW,306,5.0,-999.0,75,0.00,,,0.00,Wunderground v.1.15,2013-05-21 05:05:00,
2013-05-21 01:10:00,70.1,62.2,29.81,WNW,299,6.0,-999.0,76,0.00,,,0.00,Wunderground v.1.15,2013-05-21 05:10:00,
2013-05-21 01:20:00,68.6,61.8,29.80,NW,304,6.0,-999.0,79,0.00,,,0.00,Wunderground v.1.15,2013-05-21 05:20:00,
2013-05-21 01:25:00,68.1,61.7,29.80,NW,304,5.0,-999.0,80,0.00,,,0.00,Wunderground v.1.15,2013-05-21 05:25:00,
2013-05-21 01:30:00,67.8,61.8,29.80,NW,304,3.0,-999.0,81,0.00,,,0.00,Wunderground v.1.15,2013-05-21 05:30:00,
2013-05-21 01:35:00,67.4,61.4,29.80,NNW,332,3.0,-999.0,81,0.00,,,0.00,Wunderground v.1.15,2013-05-21 05:35:00,
2013-05-21 01:40:00,67.1,61.1,29.79,NNW,332,2.0,-999.0,81,0.00,,,0.00,Wunderground v.1.15,2013-05-21 05:40:00,
2013-05-21 01:45:00,67.0,61.0,29.79,NNW,332,1.0,-999.0,81,0.00,,,0.00,Wunderground v.1.15,2013-05-21 05:45:00,
2013-05-21 01:50:00,66.8,60.8,29.79,NNW,332,0.0,-999.0,81,0.00,,,0.00,Wunderground v.1.15,2013-05-21 05:50:00,
2013-05-21 01:55:00,66.6,60.9,29.79,NNW,332,0.0,-999.0,82,0.00,,,0.00,Wunderground v.1.15,2013-05-21 05:55:00,
2013-05-21 02:00:00,66.1,60.8,29.79,NNW,332,0.0,-999.0,83,0.00,,,0.00,Wunderground v.1.15,2013-05-21 06:00:00,
2013-05-21 02:05:00,65.7,60.7,29.79,NNW,332,0.0,-999.0,84,0.00,,,0.00,Wunderground v.1.15,2013-05-21 06:05:00,
2013-05-21 02:10:00,65.4,60.8,29.78,NNW,331,0.0,-999.0,85,0.00,,,0.00,Wunderground v.1.15,2013-05-21 06:10:00,
2013-05-21 02:15:00,65.4,61.1,29.78,NNW,331,1.0,-999.0,86,0.00,,,0.00,Wunderground v.1.15,2013-05-21 06:15:00,
2013-05-21 02:20:00,65.1,60.8,29.78,NNW,331,1.0,-999.0,86,0.00,,,0.00,Wunderground v.1.15,2013-05-21 06:20:00,
2013-05-21 02:25:00,64.7,60.4,29.78,NNW,331,1.0,-999.0,86,0.00,,,0.00,Wunderground v.1.15,2013-05-21 06:25:00,
2013-05-21 02:30:00,64.4,60.1,29.78,NNW,328,3.0,-999.0,86,0.00,,,0.00,Wunderground v.1.15,2013-05-21 06:30:00,
2013-05-21 02:35:00,64.7,60.7,29.78,NNW,327,3.0,-999.0,87,0.00,,,0.00,Wunderground v.1.15,2013-05-21 06:35:00,
2013-05-21 02:40:00,64.8,60.8,29.78,NNW,327,3.0,-999.0,87,0.00,,,0.00,Wunderground v.1.15,2013-05-21 06:40:00,
2013-05-21 02:45:00,64.7,60.7,29.78,NNW,327,2.0,-999.0,87,0.00,,,0.00,Wunderground v.1.15,2013-05-21 06:45:00,
2013-05-21 02:50:00,64.5,60.9,29.78,NNW,327,1.0,-999.0,88,0.00,,,0.00,Wunderground v.1.15,2013-05-21 06:50:00,
2013-05-21 03:00:00,64.7,60.4,29.78,NNW,327,0.0,-999.0,86,0.00,,,0.00,Wunderground v.1.15,2013-05-21 07:00:00,
2013-05-21 03:05:00,64.8,60.8,29.78,NNW,327,0.0,-999.0,87,0.00,,,0.00,Wunderground v.1.15,2013-05-21 07:05:00,
2013-05-21 03:10:00,65.0,60.7,29.78,NNW,327,0.0,-999.0,86,0.00,,,0.00,Wunderground v.1.15,2013-05-21 07:10:00,
2013-05-21 03:15:00,65.0,60.7,29.78,NNW,327,0.0,-999.0,86,0.00,,,0.00,Wunderground v.1.15,2013-05-21 07:15:00,
2013-05-21 03:20:00,65.2,61.2,29.79,NNW,327,0.0,-999.0,87,0.00,,,0.00,Wunderground v.1.15,2013-05-21 07:20:00,
2013-05-21 03:25:00,65.4,61.1,29.79,NNW,327,1.0,-999.0,86,0.00,,,0.00,Wunderground v.1.15,2013-05-21 07:25:00,
2013-05-21 03:30:00,65.3,61.0,29.79,NNW,327,2.0,-999.0,86,0.00,,,0.00,Wunderground v.1.15,2013-05-21 07:30:00,
2013-05-21 03:35:00,65.4,61.1,29.79,NNW,327,2.0,-999.0,86,0.00,,,0.00,Wunderground v.1.15,2013-05-21 07:35:00,
2013-05-21 03:40:00,65.5,61.2,29.79,NNW,327,1.0,-999.0,86,0.00,,,0.00,Wunderground v.1.15,2013-05-21 07:40:00,
2013-05-21 03:45:00,65.6,61.3,29.79,NNW,327,0.0,-999.0,86,0.00,,,0.00,Wunderground v.1.15,2013-05-21 07:45:00,
2013-05-21 03:50:00,65.5,61.2,29.79,NNW,327,1.0,-999.0,86,0.00,,,0.00,Wunderground v.1.15,2013-05-21 07:50:00,
2013-05-21 03:55:00,65.4,61.4,29.79,NNW,327,2.0,-999.0,87,0.00,,,0.00,Wunderground v.1.15,2013-05-21 07:55:00,
2013-05-21 04:00:00,65.3,61.3,29.78,NNW,327,2.0,-999.0,87,0.00,,,0.00,Wunderground v.1.15,2013-05-21 08:00:00,
2013-05-21 04:05:00,65.1,60.8,29.78,West,261,4.0,-999.0,86,0.00,,,0.00,Wunderground v.1.15,2013-05-21 08:05:00,
2013-05-21 04:10:00,65.0,61.0,29.78,West,261,3.0,-999.0,87,0.00,,,0.00,Wunderground v.1.15,2013-05-21 08:10:00,
2013-05-21 04:15:00,65.0,61.0,29.78,SW,223,3.0,-999.0,87,0.00,,,0.00,Wunderground v.1.15,2013-05-21 08:15:00,
2013-05-21 04:20:00,65.6,61.3,29.77,SW,217,5.0,-999.0,86,0.00,,,0.00,Wunderground v.1.15,2013-05-21 08:20:00,
2013-05-21 04:25:00,65.6,61.0,29.77,SW,221,5.0,-999.0,85,0.00,,,0.00,Wunderground v.1.15,2013-05-21 08:25:00,
2013-05-21 04:30:00,65.6,61.0,29.77,SW,222,5.0,-999.0,85,0.00,,,0.00,Wunderground v.1.15,2013-05-21 08:30:00,
2013-05-21 04:35:00,65.5,60.9,29.77,SW,222,4.0,-999.0,85,0.00,,,0.00,Wunderground v.1.15,2013-05-21 08:35:00,
2013-05-21 04:45:00,65.6,61.3,29.77,SW,220,5.0,-999.0,86,0.00,,,0.00,Wunderground v.1.15,2013-05-21 08:45:00,
2013-05-21 04:50:00,65.6,61.0,29.77,SW,220,5.0,-999.0,85,0.00,,,0.00,Wunderground v.1.15,2013-05-21 08:50:00,
2013-05-21 04:55:00,65.4,60.8,29.77,SW,221,5.0,-999.0,85,0.00,,,0.00,Wunderground v.1.15,2013-05-21 08:55:00,
2013-05-21 05:00:00,65.2,60.9,29.78,SW,223,5.0,-999.0,86,0.00,,,0.00,Wunderground v.1.15,2013-05-21 09:00:00,
2013-05-21 05:05:00,65.3,61.0,29.78,SW,223,5.0,-999.0,86,0.00,,,0.00,Wunderground v.1.15,2013-05-21 09:05:00,
2013-05-21 05:10:00,65.2,60.9,29.78,SW,223,5.0,-999.0,86,0.00,,,0.00,Wunderground v.1.15,2013-05-21 09:10:00,
2013-05-21 05:20:00,65.3,61.0,29.77,SW,223,5.0,-999.0,86,0.00,,,0.00,Wunderground v.1.15,2013-05-21 09:20:00,
2013-05-21 05:25:00,65.5,61.2,29.78,SW,228,6.0,-999.0,86,0.00,,,0.00,Wunderground v.1.15,2013-05-21 09:25:00,
2013-05-21 05:30:00,65.9,61.3,29.78,SW,228,6.0,-999.0,85,0.00,,,0.00,Wunderground v.1.15,2013-05-21 09:30:00,
2013-05-21 05:35:00,66.5,61.5,29.78,SW,232,6.0,-999.0,84,0.00,,,0.00,Wunderground v.1.15,2013-05-21 09:35:00,
2013-05-21 05:40:00,66.7,61.4,29.78,SW,232,6.0,-999.0,83,0.00,,,0.00,Wunderground v.1.15,2013-05-21 09:40:00,
2013-05-21 05:45:00,66.7,61.4,29.78,SW,224,6.0,-999.0,83,0.00,,,0.00,Wunderground v.1.15,2013-05-21 09:45:00,
2013-05-21 05:55:00,66.1,61.1,29.78,SW,227,8.0,-999.0,84,0.00,,,0.00,Wunderground v.1.15,2013-05-21 09:55:00,
2013-05-21 06:00:00,65.8,61.2,29.78,SW,228,7.0,-999.0,85,0.00,,,0.00,Wunderground v.1.15,2013-05-21 10:00:00,
2013-05-21 06:05:00,65.9,61.3,29.78,SW,228,7.0,-999.0,85,0.00,,,0.00,Wunderground v.1.15,2013-05-21 10:05:00,
2013-05-21 06:15:00,66.2,61.6,29.78,SW,221,6.0,-999.0,85,0.00,,,0.00,Wunderground v.1.15,2013-05-21 10:15:00,
2013-05-21 06:20:00,66.3,62.0,29.78,SW,219,7.0,-999.0,86,0.00,,,0.00,Wunderground v.1.15,2013-05-21 10:20:00,
2013-05-21 06:25:00,66.5,62.2,29.78,SW,217,8.0,-999.0,86,0.00,,,0.00,Wunderground v.1.15,2013-05-21 10:25:00,
2013-05-21 06:30:00,66.5,62.2,29.78,SW,225,9.0,-999.0,86,0.00,,,0.00,Wunderground v.1.15,2013-05-21 10:30:00,
2013-05-21 06:35:00,66.5,62.2,29.78,SW,229,9.0,-999.0,86,0.00,,,0.00,Wunderground v.1.15,2013-05-21 10:35:00,
2013-05-21 06:40:00,66.6,61.9,29.78,SW,219,10.0,-999.0,85,0.00,,,0.00,Wunderground v.1.15,2013-05-21 10:40:00,
2013-05-21 06:45:00,66.6,62.3,29.79,SW,222,10.0,-999.0,86,0.00,,,0.00,Wunderground v.1.15,2013-05-21 10:45:00,
2013-05-21 06:50:00,66.6,62.3,29.79,SW,223,8.0,-999.0,86,0.00,,,0.00,Wunderground v.1.15,2013-05-21 10:50:00,
2013-05-21 07:00:00,66.7,62.7,29.79,SW,218,8.0,-999.0,87,0.00,,,0.00,Wunderground v.1.15,2013-05-21 11:00:00,
2013-05-21 07:05:00,66.9,62.6,29.79,SW,220,8.0,-999.0,86,0.00,,,0.00,Wunderground v.1.15,2013-05-21 11:05:00,
2013-05-21 07:10:00,67.0,62.7,29.79,SW,218,8.0,-999.0,86,0.00,,,0.00,Wunderground v.1.15,2013-05-21 11:10:00,
2013-05-21 07:15:00,66.9,62.6,29.79,SW,215,8.0,-999.0,86,0.00,,,0.00,Wunderground v.1.15,2013-05-21 11:15:00,
2013-05-21 07:20:00,66.8,62.5,29.79,SW,219,9.0,-999.0,86,0.00,,,0.00,Wunderground v.1.15,2013-05-21 11:20:00,
2013-05-21 07:25:00,66.8,62.8,29.79,SW,217,9.0,-999.0,87,0.00,,,0.00,Wunderground v.1.15,2013-05-21 11:25:00,
2013-05-21 07:30:00,67.0,63.0,29.79,SW,217,8.0,-999.0,87,0.00,,,0.00,Wunderground v.1.15,2013-05-21 11:30:00,
2013-05-21 07:35:00,67.4,63.4,29.79,SW,217,7.0,-999.0,87,0.00,,,0.00,Wunderground v.1.15,2013-05-21 11:35:00,
2013-05-21 07:40:00,67.7,63.7,29.80,SW,220,8.0,-999.0,87,0.00,,,0.00,Wunderground v.1.15,2013-05-21 11:40:00,
2013-05-21 07:45:00,67.9,63.6,29.80,SW,223,9.0,-999.0,86,0.00,,,0.00,Wunderground v.1.15,2013-05-21 11:45:00,
2013-05-21 07:50:00,68.2,63.9,29.80,SW,224,8.0,-999.0,86,0.00,,,0.00,Wunderground v.1.15,2013-05-21 11:50:00,
2013-05-21 07:55:00,68.6,64.2,29.79,SW,217,8.0,-999.0,86,0.00,,,0.00,Wunderground v.1.15,2013-05-21 11:55:00,
2013-05-21 08:00:00,69.1,64.7,29.80,SW,222,8.0,-999.0,86,0.00,,,0.00,Wunderground v.1.15,2013-05-21 12:00:00,
2013-05-21 08:05:00,69.5,64.8,29.80,SW,219,8.0,-999.0,85,0.00,,,0.00,Wunderground v.1.15,2013-05-21 12:05:00,
2013-05-21 08:10:00,70.2,65.5,29.79,SW,223,7.0,-999.0,85,0.00,,,0.00,Wunderground v.1.15,2013-05-21 12:10:00,
2013-05-21 08:15:00,70.8,66.1,29.79,SW,219,7.0,-999.0,85,0.00,,,0.00,Wunderground v.1.15,2013-05-21 12:15:00,
2013-05-21 08:20:00,71.3,66.2,29.79,SW,229,6.0,-999.0,84,0.00,,,0.00,Wunderground v.1.15,2013-05-21 12:20:00,
2013-05-21 08:25:00,71.9,66.8,29.79,SW,219,6.0,-999.0,84,0.00,,,0.00,Wunderground v.1.15,2013-05-21 12:25:00,
2013-05-21 08:30:00,72.4,66.9,29.79,WSW,240,7.0,-999.0,83,0.00,,,0.00,Wunderground v.1.15,2013-05-21 12:30:00,
2013-05-21 08:35:00,72.9,67.4,29.79,WSW,243,7.0,-999.0,83,0.00,,,0.00,Wunderground v.1.15,2013-05-21 12:35:00,
2013-05-21 08:45:00,73.6,67.8,29.79,SW,232,7.0,-999.0,82,0.00,,,0.00,Wunderground v.1.15,2013-05-21 12:45:00,
2013-05-21 08:50:00,74.0,67.8,29.78,WSW,254,7.0,-999.0,81,0.00,,,0.00,Wunderground v.1.15,2013-05-21 12:50:00,
2013-05-21 08:55:00,74.3,68.1,29.79,SW,230,7.0,-999.0,81,0.00,,,0.00,Wunderground v.1.15,2013-05-21 12:55:00,
2013-05-21 09:00:00,74.8,68.2,29.79,WSW,242,7.0,-999.0,80,0.00,,,0.00,Wunderground v.1.15,2013-05-21 13:00:00,
2013-05-21 09:05:00,75.0,68.4,29.79,SW,225,7.0,-999.0,80,0.00,,,0.00,Wunderground v.1.15,2013-05-21 13:05:00,
2013-05-21 09:10:00,75.6,69.0,29.79,SW,236,8.0,-999.0,80,0.00,,,0.00,Wunderground v.1.15,2013-05-21 13:10:00,
2013-05-21 09:15:00,76.0,68.6,29.79,WSW,248,9.0,-999.0,78,0.00,,,0.00,Wunderground v.1.15,2013-05-21 13:15:00,
2013-05-21 09:20:00,76.2,68.8,29.79,WSW,255,10.0,-999.0,78,0.00,,,0.00,Wunderground v.1.15,2013-05-21 13:20:00,
2013-05-21 09:25:00,76.7,68.9,29.79,WSW,254,9.0,-999.0,77,0.00,,,0.00,Wunderground v.1.15,2013-05-21 13:25:00,
2013-05-21 09:35:00,76.8,69.0,29.78,WSW,252,10.0,-999.0,77,0.00,,,0.00,Wunderground v.1.15,2013-05-21 13:35:00,
2013-05-21 09:40:00,77.1,68.9,29.78,WSW,246,10.0,-999.0,76,0.00,,,0.00,Wunderground v.1.15,2013-05-21 13:40:00,
2013-05-21 09:45:00,77.1,68.6,29.78,WSW,257,11.0,-999.0,75,0.00,,,0.00,Wunderground v.1.15,2013-05-21 13:45:00,
2013-05-21 09:50:00,77.2,68.7,29.78,WSW,255,12.0,-999.0,75,0.00,,,0.00,Wunderground v.1.15,2013-05-21 13:50:00,
2013-05-21 09:55:00,77.5,68.6,29.77,WSW,249,11.0,-999.0,74,0.00,,,0.00,Wunderground v.1.15,2013-05-21 13:55:00,
2013-05-21 10:00:00,77.8,68.8,29.77,WSW,248,10.0,-999.0,74,0.00,,,0.00,Wunderground v.1.15,2013-05-21 14:00:00,
2013-05-21 10:05:00,78.1,68.7,29.77,WSW,247,10.0,-999.0,73,0.00,,,0.00,Wunderground v.1.15,2013-05-21 14:05:00,
2013-05-21 10:10:00,77.9,68.5,29.76,WSW,245,10.0,-999.0,73,0.00,,,0.00,Wunderground v.1.15,2013-05-21 14:10:00,
2013-05-21 10:15:00,78.2,68.8,29.76,WSW,257,9.0,-999.0,73,0.00,,,0.00,Wunderground v.1.15,2013-05-21 14:15:00,
2013-05-21 10:20:00,78.1,68.3,29.76,West,271,8.0,-999.0,72,0.00,,,0.00,Wunderground v.1.15,2013-05-21 14:20:00,
2013-05-21 10:25:00,78.4,68.6,29.76,West,273,8.0,-999.0,72,0.00,,,0.00,Wunderground v.1.15,2013-05-21 14:25:00,
2013-05-21 10:30:00,78.6,68.8,29.76,SW,234,8.0,-999.0,72,0.00,,,0.00,Wunderground v.1.15,2013-05-21 14:30:00,
2013-05-21 10:35:00,78.6,68.4,29.76,WSW,237,9.0,-999.0,71,0.00,,,0.00,Wunderground v.1.15,2013-05-21 14:35:00,
2013-05-21 10:40:00,78.9,68.7,29.75,West,259,9.0,-999.0,71,0.00,,,0.00,Wunderground v.1.15,2013-05-21 14:40:00,
2013-05-21 10:45:00,78.8,68.2,29.76,WSW,244,8.0,-999.0,70,0.00,,,0.00,Wunderground v.1.15,2013-05-21 14:45:00,
2013-05-21 10:50:00,78.9,68.3,29.76,SW,235,7.0,-999.0,70,0.00,,,0.00,Wunderground v.1.15,2013-05-21 14:50:00,
2013-05-21 10:55:00,79.1,68.5,29.76,WSW,246,7.0,-999.0,70,0.00,,,0.00,Wunderground v.1.15,2013-05-21 14:55:00,
2013-05-21 11:00:00,79.4,67.9,29.76,West,261,6.0,-999.0,68,0.00,,,0.00,Wunderground v.1.15,2013-05-21 15:00:00,
2013-05-21 11:05:00,79.7,68.6,29.76,WSW,250,6.0,-999.0,69,0.00,,,0.00,Wunderground v.1.15,2013-05-21 15:05:00,
2013-05-21 11:10:00,80.6,68.6,29.75,WSW,246,6.0,-999.0,67,0.00,,,0.00,Wunderground v.1.15,2013-05-21 15:10:00,
2013-05-21 11:15:00,81.0,68.6,29.75,West,265,6.0,-999.0,66,0.00,,,0.00,Wunderground v.1.15,2013-05-21 15:15:00,
2013-05-21 11:20:00,80.5,67.2,29.75,SW,232,6.0,-999.0,64,0.00,,,0.00,Wunderground v.1.15,2013-05-21 15:20:00,
2013-05-21 11:25:00,80.8,67.5,29.75,SW,222,7.0,-999.0,64,0.00,,,0.00,Wunderground v.1.15,2013-05-21 15:25:00,
2013-05-21 11:30:00,81.1,67.8,29.75,SW,223,7.0,-999.0,64,0.00,,,0.00,Wunderground v.1.15,2013-05-21 15:30:00,
2013-05-21 11:35:00,81.2,67.9,29.75,West,275,9.0,-999.0,64,0.00,,,0.00,Wunderground v.1.15,2013-05-21 15:35:00,
2013-05-21 11:40:00,81.2,66.9,29.75,SW,225,8.0,-999.0,62,0.00,,,0.00,Wunderground v.1.15,2013-05-21 15:40:00,
2013-05-21 11:45:00,81.5,66.8,29.75,SW,226,7.0,-999.0,61,0.00,,,0.00,Wunderground v.1.15,2013-05-21 15:45:00,
2013-05-21 11:50:00,82.1,67.3,29.75,SW,228,8.0,-999.0,61,0.00,,,0.00,Wunderground v.1.15,2013-05-21 15:50:00,
2013-05-21 11:55:00,82.1,67.3,29.75,WSW,253,8.0,-999.0,61,0.00,,,0.00,Wunderground v.1.15,2013-05-21 15:55:00,
2013-05-21 12:00:00,81.8,67.0,29.75,WSW,240,8.0,-999.0,61,0.00,,,0.00,Wunderground v.1.15,2013-05-21 16:00:00,
2013-05-21 12:05:00,82.0,67.2,29.75,SW,219,9.0,-999.0,61,0.00,,,0.00,Wunderground v.1.15,2013-05-21 16:05:00,
2013-05-21 12:10:00,82.1,67.3,29.75,SSW,204,7.0,-999.0,61,0.00,,,0.00,Wunderground v.1.15,2013-05-21 16:10:00,
2013-05-21 12:15:00,82.2,67.4,29.74,SSW,202,7.0,-999.0,61,0.00,,,0.00,Wunderground v.1.15,2013-05-21 16:15:00,
2013-05-21 12:20:00,82.6,67.8,29.74,SSW,200,7.0,-999.0,61,0.00,,,0.00,Wunderground v.1.15,2013-05-21 16:20:00,
2013-05-21 12:25:00,82.2,67.4,29.73,SSW,202,8.0,-999.0,61,0.00,,,0.00,Wunderground v.1.15,2013-05-21 16:25:00,
2013-05-21 12:30:00,82.1,66.8,29.73,SSW,207,8.0,-999.0,60,0.00,,,0.00,Wunderground v.1.15,2013-05-21 16:30:00,
2013-05-21 12:35:00,82.3,67.5,29.73,SSW,200,7.0,-999.0,61,0.00,,,0.00,Wunderground v.1.15,2013-05-21 16:35:00,
2013-05-21 12:40:00,82.2,67.4,29.73,SSW,209,7.0,-999.0,61,0.00,,,0.00,Wunderground v.1.15,2013-05-21 16:40:00,
2013-05-21 12:45:00,82.0,67.7,29.72,South,178,6.0,-999.0,62,0.00,,,0.00,Wunderground v.1.15,2013-05-21 16:45:00,
2013-05-21 12:50:00,82.2,67.9,29.72,SW,227,5.0,-999.0,62,0.00,,,0.00,Wunderground v.1.15,2013-05-21 16:50:00,
2013-05-21 12:55:00,82.6,66.3,29.72,SW,228,8.0,-999.0,58,0.00,,,0.00,Wunderground v.1.15,2013-05-21 16:55:00,
2013-05-21 13:00:00,83.1,66.3,29.72,WSW,240,8.0,-999.0,57,0.00,,,0.00,Wunderground v.1.15,2013-05-21 17:00:00,
2013-05-21 13:10:00,83.7,66.3,29.71,SW,215,8.0,-999.0,56,0.00,,,0.00,Wunderground v.1.15,2013-05-21 17:10:00,
2013-05-21 13:15:00,83.9,67.5,29.71,SSW,204,8.0,-999.0,58,0.00,,,0.00,Wunderground v.1.15,2013-05-21 17:15:00,
2013-05-21 13:20:00,84.1,67.2,29.71,SSW,210,7.0,-999.0,57,0.00,,,0.00,Wunderground v.1.15,2013-05-21 17:20:00,
2013-05-21 13:25:00,83.5,66.7,29.71,SSW,204,8.0,-999.0,57,0.00,,,0.00,Wunderground v.1.15,2013-05-21 17:25:00,
2013-05-21 13:30:00,83.1,66.8,29.71,SW,232,8.0,-999.0,58,0.00,,,0.00,Wunderground v.1.15,2013-05-21 17:30:00,
2013-05-21 13:35:00,83.1,66.3,29.70,South,186,8.0,-999.0,57,0.00,,,0.00,Wunderground v.1.15,2013-05-21 17:35:00,
2013-05-21 13:40:00,83.0,66.7,29.70,SSW,203,10.0,-999.0,58,0.00,,,0.00,Wunderground v.1.15,2013-05-21 17:40:00,
2013-05-21 13:45:00,83.6,65.7,29.70,SW,221,9.0,-999.0,55,0.00,,,0.00,Wunderground v.1.15,2013-05-21 17:45:00,
2013-05-21 13:50:00,84.1,65.7,29.70,SW,233,9.0,-999.0,54,0.00,,,0.00,Wunderground v.1.15,2013-05-21 17:50:00,
2013-05-21 13:55:00,84.2,65.2,29.69,SSW,200,10.0,-999.0,53,0.00,,,0.00,Wunderground v.1.15,2013-05-21 17:55:00,
2013-05-21 14:00:00,84.2,65.2,29.69,WSW,238,10.0,-999.0,53,0.00,,,0.00,Wunderground v.1.15,2013-05-21 18:00:00,
2013-05-21 14:05:00,84.5,64.9,29.68,SSW,198,10.0,-999.0,52,0.00,,,0.00,Wunderground v.1.15,2013-05-21 18:05:00,
2013-05-21 14:10:00,84.0,65.0,29.68,SSW,207,11.0,-999.0,53,0.00,,,0.00,Wunderground v.1.15,2013-05-21 18:10:00,
2013-05-21 14:15:00,84.1,64.6,29.68,SW,232,12.0,-999.0,52,0.00,,,0.00,Wunderground v.1.15,2013-05-21 18:15:00,
2013-05-21 14:20:00,84.3,64.8,29.68,SW,225,10.0,-999.0,52,0.00,,,0.00,Wunderground v.1.15,2013-05-21 18:20:00,
2013-05-21 14:25:00,85.0,64.3,29.68,SSW,209,9.0,-999.0,50,0.00,,,0.00,Wunderground v.1.15,2013-05-21 18:25:00,
2013-05-21 14:30:00,85.5,64.2,29.68,WSW,238,11.0,-999.0,49,0.00,,,0.00,Wunderground v.1.15,2013-05-21 18:30:00,
2013-05-21 14:35:00,86.0,64.6,29.68,SW,220,12.0,-999.0,49,0.00,,,0.00,Wunderground v.1.15,2013-05-21 18:35:00,
2013-05-21 14:40:00,86.0,64.6,29.67,SSW,211,12.0,-999.0,49,0.00,,,0.00,Wunderground v.1.15,2013-05-21 18:40:00,
2013-05-21 14:50:00,86.2,63.6,29.67,SW,214,12.0,-999.0,47,0.00,,,0.00,Wunderground v.1.15,2013-05-21 18:50:00,
2013-05-21 14:55:00,86.0,63.4,29.67,SSW,205,12.0,-999.0,47,0.00,,,0.00,Wunderground v.1.15,2013-05-21 18:55:00,
2013-05-21 15:00:00,86.3,64.3,29.67,SSW,213,11.0,-999.0,48,0.00,,,0.00,Wunderground v.1.15,2013-05-21 19:00:00,
2013-05-21 15:05:00,86.2,65.4,29.67,SW,233,10.0,-999.0,50,0.00,,,0.00,Wunderground v.1.15,2013-05-21 19:05:00,
2013-05-21 15:10:00,85.9,64.5,29.67,South,181,11.0,-999.0,49,0.00,,,0.00,Wunderground v.1.15,2013-05-21 19:10:00,
2013-05-21 15:15:00,85.9,63.9,29.67,SW,235,10.0,-999.0,48,0.00,,,0.00,Wunderground v.1.15,2013-05-21 19:15:00,
2013-05-21 15:20:00,85.5,64.2,29.67,WSW,237,10.0,-999.0,49,0.00,,,0.00,Wunderground v.1.15,2013-05-21 19:20:00,
2013-05-21 15:30:00,86.0,64.0,29.66,SW,228,9.0,-999.0,48,0.00,,,0.00,Wunderground v.1.15,2013-05-21 19:30:00,
2013-05-21 15:35:00,86.3,63.1,29.66,SW,230,11.0,-999.0,46,0.00,,,0.00,Wunderground v.1.15,2013-05-21 19:35:00,
2013-05-21 15:40:00,87.0,64.9,29.66,SW,226,10.0,-999.0,48,0.00,,,0.00,Wunderground v.1.15,2013-05-21 19:40:00,
2013-05-21 15:45:00,86.4,63.8,29.66,SSW,205,11.0,-999.0,47,0.00,,,0.00,Wunderground v.1.15,2013-05-21 19:45:00,
2013-05-21 15:50:00,86.5,63.9,29.66,SW,235,12.0,-999.0,47,0.00,,,0.00,Wunderground v.1.15,2013-05-21 19:50:00,
2013-05-21 15:55:00,86.6,63.4,29.66,SSW,209,12.0,-999.0,46,0.00,,,0.00,Wunderground v.1.15,2013-05-21 19:55:00,
2013-05-21 16:00:00,86.8,63.5,29.65,WSW,254,11.0,-999.0,46,0.00,,,0.00,Wunderground v.1.15,2013-05-21 20:00:00,
2013-05-21 16:10:00,85.5,63.6,29.65,WSW,255,12.0,-999.0,48,0.00,,,0.00,Wunderground v.1.15,2013-05-21 20:10:00,
2013-05-21 16:15:00,85.1,63.8,29.65,WSW,242,9.0,-999.0,49,0.00,,,0.00,Wunderground v.1.15,2013-05-21 20:15:00,
2013-05-21 16:20:00,84.8,64.1,29.66,WSW,248,8.0,-999.0,50,0.00,,,0.00,Wunderground v.1.15,2013-05-21 20:20:00,
2013-05-21 16:25:00,84.6,63.9,29.66,West,262,9.0,-999.0,50,0.00,,,0.00,Wunderground v.1.15,2013-05-21 20:25:00,
2013-05-21 16:30:00,82.1,63.8,29.67,West,261,11.0,-999.0,54,0.00,,,0.00,Wunderground v.1.15,2013-05-21 20:30:00,
2013-05-21 16:40:00,76.3,62.8,29.66,NW,306,9.0,-999.0,63,0.11,,,0.03,Wunderground v.1.15,2013-05-21 20:40:00,
2013-05-21 16:45:00,75.7,61.3,29.65,WNW,284,7.0,-999.0,61,0.06,,,0.03,Wunderground v.1.15,2013-05-21 20:45:00,
2013-05-21 16:55:00,75.8,64.1,29.65,West,279,6.0,-999.0,67,0.00,,,0.03,Wunderground v.1.15,2013-05-21 20:55:00,
2013-05-21 17:00:00,76.5,66.0,29.65,West,279,4.0,-999.0,70,0.00,,,0.03,Wunderground v.1.15,2013-05-21 21:00:00,
2013-05-21 17:05:00,77.3,66.3,29.65,WNW,291,4.0,-999.0,69,0.00,,,0.03,Wunderground v.1.15,2013-05-21 21:05:00,
2013-05-21 17:10:00,78.2,66.8,29.65,WNW,286,3.0,-999.0,68,0.00,,,0.03,Wunderground v.1.15,2013-05-21 21:10:00,
2013-05-21 17:20:00,80.0,66.3,29.64,WNW,292,4.0,-999.0,63,0.00,,,0.03,Wunderground v.1.15,2013-05-21 21:20:00,
2013-05-21 17:25:00,80.8,66.6,29.64,WNW,292,3.0,-999.0,62,0.00,,,0.03,Wunderground v.1.15,2013-05-21 21:25:00,
2013-05-21 17:30:00,81.2,66.9,29.64,WNW,296,4.0,-999.0,62,0.00,,,0.03,Wunderground v.1.15,2013-05-21 21:30:00,
2013-05-21 17:35:00,81.6,66.8,29.64,West,276,5.0,-999.0,61,0.00,,,0.03,Wunderground v.1.15,2013-05-21 21:35:00,
2013-05-21 17:40:00,81.8,67.0,29.64,West,270,5.0,-999.0,61,0.00,,,0.03,Wunderground v.1.15,2013-05-21 21:40:00,
2013-05-21 17:45:00,82.0,67.7,29.64,West,277,5.0,-999.0,62,0.00,,,0.03,Wunderground v.1.15,2013-05-21 21:45:00,
2013-05-21 17:50:00,82.1,67.8,29.64,WNW,284,4.0,-999.0,62,0.00,,,0.03,Wunderground v.1.15,2013-05-21 21:50:00,
2013-05-21 17:55:00,82.1,68.3,29.64,WNW,284,4.0,-999.0,63,0.00,,,0.03,Wunderground v.1.15,2013-05-21 21:55:00,
2013-05-21 18:00:00,82.0,68.6,29.64,WNW,299,4.0,-999.0,64,0.00,,,0.03,Wunderground v.1.15,2013-05-21 22:00:00,
2013-05-21 18:05:00,82.1,69.2,29.63,WNW,299,3.0,-999.0,65,0.00,,,0.03,Wunderground v.1.15,2013-05-21 22:05:00,
2013-05-21 18:10:00,82.0,68.6,29.63,WNW,283,4.0,-999.0,64,0.00,,,0.03,Wunderground v.1.15,2013-05-21 22:10:00,
2013-05-21 18:15:00,81.8,68.9,29.63,West,281,5.0,-999.0,65,0.00,,,0.03,Wunderground v.1.15,2013-05-21 22:15:00,
2013-05-21 18:20:00,81.7,69.2,29.63,WNW,296,5.0,-999.0,66,0.00,,,0.03,Wunderground v.1.15,2013-05-21 22:20:00,
2013-05-21 18:25:00,81.8,69.3,29.63,WNW,290,5.0,-999.0,66,0.00,,,0.03,Wunderground v.1.15,2013-05-21 22:25:00,
2013-05-21 18:30:00,81.9,69.0,29.63,WNW,290,5.0,-999.0,65,0.00,,,0.03,Wunderground v.1.15,2013-05-21 22:30:00,
2013-05-21 18:35:00,82.0,69.5,29.63,WNW,289,4.0,-999.0,66,0.00,,,0.03,Wunderground v.1.15,2013-05-21 22:35:00,
2013-05-21 18:40:00,81.9,69.4,29.63,WNW,300,5.0,-999.0,66,0.00,,,0.03,Wunderground v.1.15,2013-05-21 22:40:00,
2013-05-21 18:45:00,81.9,69.9,29.63,WNW,289,4.0,-999.0,67,0.00,,,0.03,Wunderground v.1.15,2013-05-21 22:45:00,
2013-05-21 18:50:00,82.0,70.0,29.63,WNW,291,4.0,-999.0,67,0.00,,,0.03,Wunderground v.1.15,2013-05-21 22:50:00,
2013-05-21 18:55:00,82.0,70.0,29.64,West,272,3.0,-999.0,67,0.00,,,0.03,Wunderground v.1.15,2013-05-21 22:55:00,
2013-05-21 19:00:00,82.1,70.1,29.64,WSW,257,4.0,-999.0,67,0.00,,,0.03,Wunderground v.1.15,2013-05-21 23:00:00,
2013-05-21 19:05:00,82.0,70.4,29.64,WSW,255,5.0,-999.0,68,0.00,,,0.03,Wunderground v.1.15,2013-05-21 23:05:00,
2013-05-21 19:10:00,81.8,70.6,29.64,WSW,249,6.0,-999.0,69,0.00,,,0.03,Wunderground v.1.15,2013-05-21 23:10:00,
2013-05-21 19:15:00,81.6,70.4,29.63,WSW,249,5.0,-999.0,69,0.00,,,0.03,Wunderground v.1.15,2013-05-21 23:15:00,
2013-05-21 19:20:00,81.4,70.2,29.63,WSW,249,3.0,-999.0,69,0.00,,,0.03,Wunderground v.1.15,2013-05-21 23:20:00,
2013-05-21 19:25:00,80.9,69.8,29.63,WNW,289,3.0,-999.0,69,0.00,,,0.03,Wunderground v.1.15,2013-05-21 23:25:00,
2013-05-21 19:30:00,80.4,69.7,29.63,WNW,284,4.0,-999.0,70,0.00,,,0.03,Wunderground v.1.15,2013-05-21 23:30:00,
2013-05-21 19:35:00,79.8,70.0,29.64,WNW,283,4.0,-999.0,72,0.00,,,0.03,Wunderground v.1.15,2013-05-21 23:35:00,
2013-05-21 19:40:00,79.3,69.9,29.64,WNW,294,4.0,-999.0,73,0.00,,,0.03,Wunderground v.1.15,2013-05-21 23:40:00,
2013-05-21 19:45:00,79.0,69.6,29.63,WNW,300,5.0,-999.0,73,0.00,,,0.03,Wunderground v.1.15,2013-05-21 23:45:00,
2013-05-21 19:50:00,78.6,69.6,29.64,WNW,302,6.0,-999.0,74,0.00,,,0.03,Wunderground v.1.15,2013-05-21 23:50:00,
2013-05-21 19:55:00,78.2,69.2,29.64,WNW,303,5.0,-999.0,74,0.00,,,0.03,Wunderground v.1.15,2013-05-21 23:55:00,
2013-05-21 20:00:00,77.9,69.3,29.64,WNW,295,5.0,-999.0,75,0.00,,,0.03,Wunderground v.1.15,2013-05-22 00:00:00,
2013-05-21 20:05:00,77.6,69.4,29.64,WNW,292,5.0,-999.0,76,0.00,,,0.03,Wunderground v.1.15,2013-05-22 00:05:00,
2013-05-21 20:10:00,77.4,69.2,29.64,WNW,292,4.0,-999.0,76,0.00,,,0.03,Wunderground v.1.15,2013-05-22 00:10:00,
2013-05-21 20:15:00,77.1,68.9,29.64,West,281,4.0,-999.0,76,0.00,,,0.03,Wunderground v.1.15,2013-05-22 00:15:00,
2013-05-21 20:20:00,76.8,68.7,29.64,West,271,5.0,-999.0,76,0.00,,,0.03,Wunderground v.1.15,2013-05-22 00:20:00,
2013-05-21 20:30:00,76.4,68.7,29.64,West,280,5.0,-999.0,77,0.00,,,0.03,Wunderground v.1.15,2013-05-22 00:30:00,
2013-05-21 20:35:00,76.1,68.0,29.64,West,279,5.0,-999.0,76,0.00,,,0.03,Wunderground v.1.15,2013-05-22 00:35:00,
2013-05-21 20:40:00,75.9,66.6,29.65,WNW,286,8.0,-999.0,73,0.00,,,0.03,Wunderground v.1.15,2013-05-22 00:40:00,
2013-05-21 20:45:00,75.5,67.0,29.65,West,275,9.0,-999.0,75,0.00,,,0.03,Wunderground v.1.15,2013-05-22 00:45:00,
2013-05-21 20:50:00,74.8,66.7,29.66,WNW,297,7.0,-999.0,76,0.00,,,0.03,Wunderground v.1.15,2013-05-22 00:50:00,
2013-05-21 20:55:00,74.1,66.0,29.66,West,269,7.0,-999.0,76,0.00,,,0.03,Wunderground v.1.15,2013-05-22 00:55:00,
2013-05-21 21:00:00,73.5,65.8,29.66,West,260,7.0,-999.0,77,0.00,,,0.03,Wunderground v.1.15,2013-05-22 01:00:00,
2013-05-21 21:05:00,73.1,65.5,29.66,West,269,9.0,-999.0,77,0.00,,,0.03,Wunderground v.1.15,2013-05-22 01:05:00,
2013-05-21 21:10:00,72.3,65.4,29.66,West,281,9.0,-999.0,79,0.00,,,0.04,Wunderground v.1.15,2013-05-22 01:10:00,
2013-05-21 21:15:00,72.0,65.1,29.65,WNW,294,7.0,-999.0,79,0.00,,,0.04,Wunderground v.1.15,2013-05-22 01:15:00,
2013-05-21 21:25:00,71.5,65.0,29.65,West,277,7.0,-999.0,80,0.00,,,0.04,Wunderground v.1.15,2013-05-22 01:25:00,
2013-05-21 21:30:00,71.3,64.8,29.65,WNW,283,7.0,-999.0,80,0.00,,,0.04,Wunderground v.1.15,2013-05-22 01:30:00,
2013-05-21 21:35:00,71.2,64.4,29.65,West,267,6.0,-999.0,79,0.00,,,0.04,Wunderground v.1.15,2013-05-22 01:35:00,
2013-05-21 21:40:00,71.1,64.6,29.65,West,266,5.0,-999.0,80,0.00,,,0.04,Wunderground v.1.15,2013-05-22 01:40:00,
2013-05-21 21:45:00,70.6,64.5,29.66,WSW,242,6.0,-999.0,81,0.00,,,0.04,Wunderground v.1.15,2013-05-22 01:45:00,
2013-05-21 21:50:00,70.5,64.4,29.66,WSW,238,7.0,-999.0,81,0.00,,,0.04,Wunderground v.1.15,2013-05-22 01:50:00,
2013-05-21 22:00:00,70.6,64.5,29.66,WSW,242,7.0,-999.0,81,0.00,,,0.04,Wunderground v.1.15,2013-05-22 02:00:00,
2013-05-21 22:10:00,70.6,64.8,29.66,WSW,240,5.0,-999.0,82,0.00,,,0.04,Wunderground v.1.15,2013-05-22 02:10:00,
2013-05-21 22:15:00,70.6,64.8,29.66,WSW,249,5.0,-999.0,82,0.00,,,0.04,Wunderground v.1.15,2013-05-22 02:15:00,
2013-05-21 22:20:00,70.3,64.5,29.66,WSW,249,5.0,-999.0,82,0.00,,,0.04,Wunderground v.1.15,2013-05-22 02:20:00,
2013-05-21 22:25:00,69.8,64.4,29.67,WSW,251,5.0,-999.0,83,0.00,,,0.04,Wunderground v.1.15,2013-05-22 02:25:00,
2013-05-21 22:30:00,69.7,64.3,29.67,WSW,251,5.0,-999.0,83,0.00,,,0.04,Wunderground v.1.15,2013-05-22 02:30:00,
2013-05-21 22:35:00,69.5,64.5,29.67,WSW,251,5.0,-999.0,84,0.00,,,0.04,Wunderground v.1.15,2013-05-22 02:35:00,
2013-05-21 22:40:00,69.4,64.4,29.67,WSW,251,4.0,-999.0,84,0.00,,,0.04,Wunderground v.1.15,2013-05-22 02:40:00,
2013-05-21 22:45:00,69.4,64.0,29.67,WSW,251,2.0,-999.0,83,0.00,,,0.04,Wunderground v.1.15,2013-05-22 02:45:00,
2013-05-21 22:50:00,69.8,64.1,29.67,WSW,247,3.0,-999.0,82,0.00,,,0.04,Wunderground v.1.15,2013-05-22 02:50:00,
2013-05-21 22:55:00,69.9,64.2,29.67,SW,231,5.0,-999.0,82,0.00,,,0.04,Wunderground v.1.15,2013-05-22 02:55:00,
2013-05-21 23:00:00,70.1,64.0,29.67,SW,236,6.0,-999.0,81,0.00,,,0.04,Wunderground v.1.15,2013-05-22 03:00:00,
2013-05-21 23:05:00,70.0,63.9,29.67,WSW,238,6.0,-999.0,81,0.00,,,0.04,Wunderground v.1.15,2013-05-22 03:05:00,
2013-05-21 23:15:00,69.6,63.9,29.68,WSW,240,4.0,-999.0,82,0.00,,,0.04,Wunderground v.1.15,2013-05-22 03:15:00,
2013-05-21 23:20:00,69.3,63.9,29.67,WSW,240,2.0,-999.0,83,0.00,,,0.04,Wunderground v.1.15,2013-05-22 03:20:00,
2013-05-21 23:25:00,69.2,63.8,29.67,WSW,240,2.0,-999.0,83,0.00,,,0.04,Wunderground v.1.15,2013-05-22 03:25:00,
2013-05-21 23:30:00,69.2,63.8,29.67,WSW,240,1.0,-999.0,83,0.00,,,0.04,Wunderground v.1.15,2013-05-22 03:30:00,
2013-05-21 23:35:00,69.0,63.6,29.68,SW,235,2.0,-999.0,83,0.00,,,0.04,Wunderground v.1.15,2013-05-22 03:35:00,
2013-05-21 23:40:00,69.4,63.7,29.67,SW,227,4.0,-999.0,82,0.00,,,0.04,Wunderground v.1.15,2013-05-22 03:40:00,
2013-05-21 23:45:00,69.5,63.4,29.67,SW,227,4.0,-999.0,81,0.00,,,0.04,Wunderground v.1.15,2013-05-22 03:45:00,
2013-05-21 23:50:00,69.8,63.7,29.67,SW,220,4.0,-999.0,81,0.00,,,0.04,Wunderground v.1.15,2013-05-22 03:50:00,
2013-05-21 23:55:00,70.2,63.7,29.67,SW,225,5.0,-999.0,80,0.00,,,0.04,Wunderground v.1.15,2013-05-22 03:55:00,